createdAt,value
2023-02-01T00:00:27.159Z,2.47
2023-02-01T00:02:53.596Z,2.30
2023-02-01T00:05:19.978Z,1.90
2023-02-01T00:07:49.350Z,1.90
2023-02-01T00:10:16.333Z,2.83
2023-02-01T00:12:42.745Z,2.10
2023-02-01T00:15:09.934Z,2.92
2023-02-01T00:17:36.405Z,2.55
2023-02-01T00:20:04.064Z,2.15
2023-02-01T00:22:30.422Z,2.30
2023-02-01T00:24:56.803Z,2.20
2023-02-01T00:27:23.205Z,2.58
2023-02-01T00:29:49.603Z,2.35
2023-02-01T00:32:16.103Z,2.33
2023-02-01T00:34:42.585Z,2.20
2023-02-01T00:37:09.093Z,2.63
2023-02-01T00:39:35.584Z,1.95
2023-02-01T00:42:03.143Z,2.10
2023-02-01T00:44:33.986Z,2.00
2023-02-01T00:47:01.139Z,2.50
2023-02-01T00:49:29.044Z,2.20
2023-02-01T00:51:55.833Z,2.05
2023-02-01T00:54:22.270Z,2.80
2023-02-01T00:56:48.695Z,2.85
2023-02-01T00:59:15.108Z,2.27
2023-02-01T01:01:41.605Z,1.58
2023-02-01T01:04:08.073Z,1.75
2023-02-01T01:06:35.322Z,2.08
2023-02-01T01:09:04.708Z,2.20
2023-02-01T01:11:33.700Z,2.37
2023-02-01T01:14:00.934Z,2.15
2023-02-01T01:16:30.195Z,1.95
2023-02-01T01:18:57.126Z,2.55
2023-02-01T01:21:23.661Z,2.35
2023-02-01T01:23:50.115Z,2.60
2023-02-01T01:26:18.937Z,2.20
2023-02-01T01:28:45.806Z,2.30
2023-02-01T01:31:13.926Z,2.15
2023-02-01T01:33:40.575Z,2.00
2023-02-01T01:36:08.259Z,1.93
2023-02-01T01:38:36.087Z,2.28
2023-02-01T01:41:02.585Z,3.20
2023-02-01T01:43:53.144Z,2.30
2023-02-01T01:46:21.912Z,2.20
2023-02-01T01:48:59.424Z,2.03
2023-02-01T01:51:28.783Z,2.10
2023-02-01T01:54:09.543Z,2.47
2023-02-01T01:56:36.460Z,2.60
2023-02-01T01:59:03.468Z,2.10
2023-02-01T02:01:30.042Z,1.97
2023-02-01T02:03:57.729Z,2.15
2023-02-01T02:06:46.288Z,3.00
2023-02-01T02:09:12.857Z,2.03
2023-02-01T02:11:39.203Z,2.40
2023-02-01T02:14:09.274Z,3.17
2023-02-01T02:16:53.653Z,2.83
2023-02-01T02:19:37.956Z,2.28
2023-02-01T02:22:41.943Z,2.47
2023-02-01T02:25:25.967Z,2.50
2023-02-01T02:28:13.348Z,2.03
2023-02-01T02:30:58.078Z,2.10
2023-02-01T02:33:48.467Z,2.13
2023-02-01T02:36:19.050Z,2.33
2023-02-01T02:39:05.053Z,2.22
2023-02-01T02:41:59.117Z,2.20
2023-02-01T02:44:51.923Z,2.42
2023-02-01T02:47:28.634Z,2.55
2023-02-01T02:50:32.118Z,2.42
2023-02-01T02:53:25.585Z,2.40
2023-02-01T02:55:53.462Z,2.73
2023-02-01T02:58:41.112Z,2.20
2023-02-01T03:01:26.594Z,2.47
2023-02-01T03:04:15.462Z,2.42
2023-02-01T03:06:42.014Z,2.40
2023-02-01T03:09:15.860Z,2.10
2023-02-01T03:12:06.231Z,2.33
2023-02-01T03:14:37.181Z,2.58
2023-02-01T03:17:14.511Z,2.47
2023-02-01T03:19:50.260Z,2.90
2023-02-01T03:22:24.310Z,2.30
2023-02-01T03:25:03.450Z,2.35
2023-02-01T03:27:39.335Z,2.30
2023-02-01T03:30:18.798Z,1.92
2023-02-01T03:33:02.642Z,2.53
2023-02-01T03:35:34.654Z,2.77
2023-02-01T03:38:22.050Z,2.60
2023-02-01T03:41:15.652Z,2.08
2023-02-01T03:44:09.903Z,3.03
2023-02-01T03:46:44.466Z,2.60
2023-02-01T03:49:17.090Z,2.23
2023-02-01T03:51:43.458Z,2.80
2023-02-01T03:54:14.442Z,2.35
2023-02-01T03:56:45.167Z,2.67
2023-02-01T03:59:12.858Z,2.15
2023-02-01T04:01:39.346Z,2.57
2023-02-01T04:04:06.135Z,3.05
2023-02-01T04:06:32.558Z,2.30
2023-02-01T04:08:58.988Z,2.20
2023-02-01T04:11:25.517Z,2.50
2023-02-01T04:13:51.921Z,2.10
2023-02-01T04:16:18.661Z,2.67
2023-02-01T04:18:45.574Z,2.58
2023-02-01T04:21:12.218Z,2.72
2023-02-01T04:23:38.775Z,2.85
2023-02-01T04:26:05.860Z,2.70
2023-02-01T04:28:32.728Z,3.00
2023-02-01T04:31:01.969Z,2.95
2023-02-01T04:33:28.645Z,2.53
2023-02-01T04:35:57.794Z,2.35
2023-02-01T04:38:24.408Z,3.10
2023-02-01T04:40:52.324Z,2.58
2023-02-01T04:43:18.987Z,2.55
2023-02-01T04:45:50.048Z,2.97
2023-02-01T04:48:18.614Z,2.60
2023-02-01T04:50:49.385Z,2.47
2023-02-01T04:53:16.503Z,2.80
2023-02-01T04:55:43.857Z,2.50
2023-02-01T04:58:11.291Z,3.13
2023-02-01T05:00:38.850Z,3.20
2023-02-01T05:03:05.442Z,2.80
2023-02-01T05:05:31.992Z,3.05
2023-02-01T05:07:58.465Z,2.42
2023-02-01T05:10:28.254Z,2.70
2023-02-01T05:13:13.193Z,2.65
2023-02-01T05:15:39.731Z,2.70
2023-02-01T05:18:06.247Z,2.88
2023-02-01T05:20:32.723Z,3.13
2023-02-01T05:22:59.486Z,2.70
2023-02-01T05:25:26.104Z,2.53
2023-02-01T05:27:53.843Z,2.70
2023-02-01T05:30:20.826Z,2.83
2023-02-01T05:32:50.836Z,2.38
2023-02-01T05:35:17.432Z,2.22
2023-02-01T05:37:44.010Z,2.30
2023-02-01T05:40:11.331Z,2.10
2023-02-01T05:42:37.947Z,2.75
2023-02-01T05:45:06.206Z,2.78
2023-02-01T05:47:32.677Z,2.55
2023-02-01T05:49:59.074Z,2.40
2023-02-01T05:52:25.887Z,2.20
2023-02-01T05:54:53.559Z,3.53
2023-02-01T05:57:19.985Z,2.60
2023-02-01T05:59:46.609Z,2.35
2023-02-01T06:02:13.304Z,2.30
2023-02-01T06:04:40.874Z,2.50
2023-02-01T06:07:08.832Z,2.50
2023-02-01T06:09:35.882Z,2.50
2023-02-01T06:12:02.692Z,2.60
2023-02-01T06:14:29.169Z,2.45
2023-02-01T06:16:56.471Z,2.07
2023-02-01T06:19:23.491Z,2.90
2023-02-01T06:21:50.078Z,2.58
2023-02-01T06:24:16.813Z,2.10
2023-02-01T06:26:43.435Z,2.55
2023-02-01T06:29:13.800Z,2.13
2023-02-01T06:31:41.439Z,2.00
2023-02-01T06:34:08.157Z,2.58
2023-02-01T06:36:34.611Z,2.58
2023-02-01T06:39:01.121Z,2.03
2023-02-01T06:41:29.616Z,2.10
2023-02-01T06:43:56.907Z,2.20
2023-02-01T06:46:24.003Z,2.53
2023-02-01T06:48:52.111Z,2.28
2023-02-01T06:51:27.311Z,2.75
2023-02-01T06:53:54.546Z,2.53
2023-02-01T06:56:21.637Z,2.65
2023-02-01T06:58:48.563Z,2.00
2023-02-01T07:01:16.218Z,3.15
2023-02-01T07:06:31.521Z,2.33
2023-02-01T07:08:58.723Z,3.40
2023-02-01T07:11:25.318Z,2.35
2023-02-01T07:13:51.958Z,2.45
2023-02-01T07:16:22.299Z,2.05
2023-02-01T07:18:51.780Z,2.77
2023-02-01T07:21:18.608Z,2.80
2023-02-01T07:23:45.056Z,2.30
2023-02-01T07:26:14.054Z,1.92
2023-02-01T07:28:41.285Z,2.38
2023-02-01T07:31:10.676Z,2.47
2023-02-01T07:33:37.269Z,2.38
2023-02-01T07:36:05.870Z,2.25
2023-02-01T07:38:32.443Z,2.42
2023-02-01T07:41:03.822Z,1.80
2023-02-01T07:43:30.746Z,2.17
2023-02-01T07:45:58.130Z,2.47
2023-02-01T07:48:25.706Z,2.05
2023-02-01T07:51:05.529Z,2.40
2023-02-01T07:53:34.086Z,2.25
2023-02-01T07:56:01.326Z,2.17
2023-02-01T07:58:28.555Z,2.33
2023-02-01T08:01:14.373Z,2.00
2023-02-01T08:03:41.385Z,2.20
2023-02-01T08:06:08.053Z,2.75
2023-02-01T08:08:34.832Z,2.80
2023-02-01T08:11:03.705Z,2.08
2023-02-01T08:13:30.740Z,2.80
2023-02-01T08:16:03.147Z,2.22
2023-02-01T08:18:29.872Z,2.42
2023-02-01T08:20:56.874Z,2.30
2023-02-01T08:23:24.272Z,2.40
2023-02-01T08:25:50.721Z,2.20
2023-02-01T08:28:17.289Z,2.67
2023-02-01T08:30:43.688Z,2.22
2023-02-01T08:33:10.785Z,2.53
2023-02-01T08:35:43.380Z,2.20
2023-02-01T08:38:10.780Z,2.03
2023-02-01T08:40:37.217Z,3.05
2023-02-01T08:43:03.647Z,2.67
2023-02-01T08:45:31.029Z,2.40
2023-02-01T08:47:58.164Z,2.30
2023-02-01T08:50:25.797Z,2.40
2023-02-01T08:52:52.706Z,2.13
2023-02-01T08:55:19.168Z,1.95
2023-02-01T08:57:45.985Z,1.93
2023-02-01T09:00:16.108Z,1.73
2023-02-01T09:02:43.085Z,2.55
2023-02-01T09:05:09.982Z,2.50
2023-02-01T09:07:36.486Z,2.00
2023-02-01T09:10:03.544Z,2.40
2023-02-01T09:12:31.703Z,2.10
2023-02-01T09:15:00.380Z,2.10
2023-02-01T09:19:55.810Z,2.72
2023-02-01T09:22:22.264Z,2.60
2023-02-01T09:24:48.777Z,2.40
2023-02-01T09:27:15.377Z,2.17
2023-02-01T09:29:41.901Z,2.17
2023-02-01T09:32:08.461Z,2.00
2023-02-01T09:34:36.273Z,2.03
2023-02-01T09:37:03.106Z,2.35
2023-02-01T09:39:31.052Z,2.25
2023-02-01T09:42:08.392Z,2.03
2023-02-01T09:45:11.087Z,1.98
2023-02-01T09:47:44.069Z,1.97
2023-02-01T09:50:21.683Z,2.20
2023-02-01T09:53:04.456Z,2.47
2023-02-01T09:55:45.568Z,2.35
2023-02-01T09:58:31.175Z,1.80
2023-02-01T10:00:59.995Z,2.00
2023-02-01T10:03:31.113Z,2.67
2023-02-01T10:06:24.191Z,2.00
2023-02-01T10:09:02.104Z,1.83
2023-02-01T10:11:57.808Z,2.30
2023-02-01T10:14:42.698Z,2.07
2023-02-01T10:17:46.181Z,2.10
2023-02-01T10:20:22.111Z,2.05
2023-02-01T10:23:23.102Z,2.00
2023-02-01T10:26:21.848Z,2.35
2023-02-01T10:28:54.671Z,2.33
2023-02-01T10:31:25.777Z,2.13
2023-02-01T10:33:57.504Z,2.65
2023-02-01T10:36:31.959Z,2.50
2023-02-01T10:39:00.386Z,2.67
2023-02-01T10:41:33.972Z,2.67
2023-02-01T10:44:01.780Z,2.40
2023-02-01T10:46:30.265Z,2.30
2023-02-01T10:49:00.743Z,2.60
2023-02-01T10:51:44.304Z,2.75
2023-02-01T10:54:38.974Z,2.03
2023-02-01T10:57:21.718Z,2.65
2023-02-01T10:59:48.114Z,1.95
2023-02-01T11:02:27.361Z,2.20
2023-02-01T11:05:01.376Z,2.15
2023-02-01T11:07:27.769Z,2.27
2023-02-01T11:09:57.378Z,1.98
2023-02-01T11:12:36.206Z,2.10
2023-02-01T11:15:15.673Z,2.28
2023-02-01T11:17:45.377Z,2.20
2023-02-01T11:20:18.445Z,2.27
2023-02-01T11:22:53.599Z,2.58
2023-02-01T11:25:20.629Z,2.22
2023-02-01T11:27:54.713Z,2.28
2023-02-01T11:30:34.655Z,2.50
2023-02-01T11:33:05.398Z,2.23
2023-02-01T11:35:34.148Z,2.75
2023-02-01T11:38:01.072Z,1.80
2023-02-01T11:40:37.074Z,2.13
2023-02-01T11:43:25.962Z,1.13
2023-02-01T11:46:03.456Z,1.90
2023-02-01T11:48:32.573Z,1.70
2023-02-01T11:51:18.691Z,2.00
2023-02-01T11:54:02.352Z,1.88
2023-02-01T11:56:45.345Z,1.95
2023-02-01T11:59:33.730Z,2.33
2023-02-01T12:02:09.481Z,2.80
2023-02-01T12:05:01.404Z,0.70
2023-02-01T12:07:59.783Z,0.20
2023-02-01T12:10:45.062Z,0.40
2023-02-01T12:13:42.568Z,0.83
2023-02-01T12:16:08.990Z,1.13
2023-02-01T12:18:47.750Z,2.30
2023-02-01T12:21:51.392Z,1.20
2023-02-01T12:24:32.945Z,1.67
2023-02-01T12:27:26.503Z,3.20
2023-02-01T12:30:11.247Z,4.40
2023-02-01T12:32:49.402Z,4.65
2023-02-01T12:35:39.848Z,3.53
2023-02-01T12:38:15.304Z,6.85
2023-02-01T12:41:03.700Z,4.10
2023-02-01T12:43:40.545Z,2.63
2023-02-01T12:46:22.202Z,5.40
2023-02-01T12:49:01.033Z,4.80
2023-02-01T12:51:33.843Z,5.30
2023-02-01T12:54:03.281Z,4.50
2023-02-01T12:56:34.282Z,2.38
2023-02-01T12:59:07.907Z,2.00
2023-02-01T13:01:54.634Z,1.75
2023-02-01T13:04:30.737Z,2.25
2023-02-01T13:07:10.897Z,1.90
2023-02-01T13:09:57.988Z,2.15
2023-02-01T13:12:32.895Z,2.15
2023-02-01T13:15:12.752Z,1.90
2023-02-01T13:17:41.347Z,2.47
2023-02-01T13:20:20.057Z,2.60
2023-02-01T13:22:52.645Z,2.40
2023-02-01T13:25:33.433Z,1.55
2023-02-01T13:28:06.861Z,1.80
2023-02-01T13:30:51.406Z,1.77
2023-02-01T13:33:56.425Z,2.10
2023-02-01T13:36:36.823Z,1.90
2023-02-01T13:39:23.169Z,2.17
2023-02-01T13:42:05.860Z,1.90
2023-02-01T13:44:41.490Z,1.98
2023-02-01T13:47:23.768Z,2.40
2023-02-01T13:49:52.051Z,2.03
2023-02-01T13:52:33.049Z,2.00
2023-02-01T13:55:23.000Z,1.83
2023-02-01T13:57:52.849Z,1.88
2023-02-01T14:00:36.096Z,1.60
2023-02-01T14:03:06.489Z,2.17
2023-02-01T14:05:32.877Z,1.75
2023-02-01T14:08:05.316Z,1.95
2023-02-01T14:10:57.829Z,2.03
2023-02-01T14:13:33.237Z,1.50
2023-02-01T14:16:05.719Z,1.48
2023-02-01T14:18:38.235Z,1.70
2023-02-01T14:21:26.513Z,1.83
2023-02-01T14:24:02.552Z,2.05
2023-02-01T14:26:53.786Z,2.00
2023-02-01T14:29:26.060Z,2.28
2023-02-01T14:32:03.766Z,2.08
2023-02-01T14:34:48.581Z,2.17
2023-02-01T14:37:17.943Z,2.10
2023-02-01T14:39:47.438Z,1.83
2023-02-01T14:42:46.471Z,1.80
2023-02-01T14:45:25.951Z,2.03
2023-02-01T14:48:07.880Z,2.20
2023-02-01T14:50:37.627Z,2.67
2023-02-01T14:53:13.492Z,1.83
2023-02-01T14:55:46.224Z,2.25
2023-02-01T14:58:37.472Z,2.15
2023-02-01T15:01:14.177Z,1.77
2023-02-01T15:19:15.865Z,2.30
2023-02-01T15:21:48.266Z,2.33
2023-02-01T15:24:19.895Z,2.13
2023-02-01T15:26:46.258Z,1.85
2023-02-01T15:29:14.785Z,2.40
2023-02-01T15:31:45.591Z,1.57
2023-02-01T15:34:13.249Z,2.30
2023-02-01T15:36:42.498Z,1.75
2023-02-01T15:39:21.088Z,1.65
2023-02-01T15:41:50.041Z,1.90
2023-02-01T15:44:19.699Z,1.77
2023-02-01T15:46:49.696Z,2.10
2023-02-01T15:49:40.370Z,1.95
2023-02-01T15:52:21.756Z,1.88
2023-02-01T15:54:53.425Z,2.17
2023-02-01T15:57:31.870Z,1.60
2023-02-01T16:00:02.135Z,2.35
2023-02-01T16:02:44.923Z,2.00
2023-02-01T16:05:34.929Z,2.20
2023-02-01T16:08:22.955Z,1.70
2023-02-01T16:10:51.718Z,1.70
2023-02-01T16:13:19.643Z,1.50
2023-02-01T16:15:46.089Z,1.95
2023-02-01T16:18:16.283Z,1.90
2023-02-01T16:20:44.024Z,2.10
2023-02-01T16:23:11.638Z,1.93
2023-02-01T16:25:39.122Z,2.08
2023-02-01T16:28:06.365Z,1.90
2023-02-01T16:30:33.632Z,2.00
2023-02-01T16:33:03.500Z,1.65
2023-02-01T16:35:36.521Z,2.13
2023-02-01T16:38:13.471Z,2.05
2023-02-01T16:40:41.114Z,2.10
2023-02-01T16:43:24.882Z,1.63
2023-02-01T16:45:54.798Z,1.58
2023-02-01T16:48:31.701Z,2.10
2023-02-01T16:51:01.623Z,1.90
2023-02-01T16:53:30.971Z,2.20
2023-02-01T16:55:58.392Z,2.15
2023-02-01T16:58:26.912Z,2.13
2023-02-01T17:00:54.032Z,1.93
2023-02-01T17:03:22.331Z,1.88
2023-02-01T17:05:57.834Z,1.90
2023-02-01T17:08:34.791Z,2.15
2023-02-01T17:11:02.527Z,1.60
2023-02-01T17:13:28.904Z,1.40
2023-02-01T17:16:24.774Z,1.77
2023-02-01T17:19:05.721Z,2.33
2023-02-01T17:21:41.432Z,1.60
2023-02-01T17:24:07.891Z,1.50
2023-02-01T17:26:34.317Z,1.80
2023-02-01T17:29:00.719Z,1.60
2023-02-01T17:31:27.226Z,1.95
2023-02-01T17:33:55.765Z,2.03
2023-02-01T17:36:22.175Z,1.95
2023-02-01T17:38:56.846Z,2.20
2023-02-01T17:41:31.544Z,1.85
2023-02-01T17:43:57.990Z,1.70
2023-02-01T17:46:27.143Z,1.67
2023-02-01T17:48:54.822Z,1.95
2023-02-01T17:51:27.823Z,1.90
2023-02-01T17:53:54.774Z,1.77
2023-02-01T17:56:23.624Z,2.05
2023-02-01T17:58:50.497Z,1.98
2023-02-01T18:01:20.762Z,1.77
2023-02-01T18:03:48.149Z,2.70
2023-02-01T18:06:16.722Z,2.00
2023-02-01T18:08:43.675Z,1.92
2023-02-01T18:11:16.031Z,2.10
2023-02-01T18:13:42.856Z,2.00
2023-02-01T18:16:18.838Z,2.10
2023-02-01T18:18:45.751Z,2.58
2023-02-01T18:21:12.132Z,1.60
2023-02-01T18:23:38.587Z,1.40
2023-02-01T18:26:05.727Z,1.60
2023-02-01T18:28:32.072Z,1.57
2023-02-01T18:30:59.329Z,1.35
2023-02-01T18:33:25.756Z,1.70
2023-02-01T18:35:52.153Z,1.75
2023-02-01T18:38:18.579Z,2.00
2023-02-01T18:40:53.631Z,1.63
2023-02-01T18:43:20.476Z,2.33
2023-02-01T18:45:47.652Z,1.40
2023-02-01T18:48:16.016Z,1.60
2023-02-01T18:50:44.737Z,2.22
2023-02-01T18:53:17.059Z,2.00
2023-02-01T18:55:43.620Z,1.67
2023-02-01T18:58:16.873Z,1.60
2023-02-01T19:00:45.180Z,2.08
2023-02-01T19:03:13.264Z,1.83
2023-02-01T19:05:42.774Z,1.47
2023-02-01T19:08:09.770Z,1.33
2023-02-01T19:10:38.584Z,1.45
2023-02-01T19:13:05.120Z,2.00
2023-02-01T19:15:32.837Z,1.60
2023-02-01T19:17:59.305Z,2.17
2023-02-01T19:20:27.464Z,1.75
2023-02-01T19:22:54.130Z,1.40
2023-02-01T19:25:26.819Z,1.50
2023-02-01T19:27:54.029Z,1.83
2023-02-01T19:30:21.635Z,2.10
2023-02-01T19:32:48.648Z,1.85
2023-02-01T19:35:19.450Z,1.85
2023-02-01T19:37:49.492Z,1.77
2023-02-01T19:40:18.593Z,1.75
2023-02-01T19:42:45.178Z,1.53
2023-02-01T19:45:11.593Z,1.70
2023-02-01T19:47:38.032Z,1.75
2023-02-01T19:50:07.038Z,1.70
2023-02-01T19:52:35.062Z,1.85
2023-02-01T19:55:01.847Z,1.53
2023-02-01T19:57:29.462Z,1.33
2023-02-01T19:59:56.146Z,1.55
2023-02-01T20:02:22.498Z,1.70
2023-02-01T20:04:49.020Z,1.75
2023-02-01T20:07:15.376Z,1.57
2023-02-01T20:09:41.904Z,1.27
2023-02-01T20:12:10.941Z,1.33
2023-02-01T20:14:38.456Z,1.60
2023-02-01T20:17:05.893Z,1.50
2023-02-01T20:19:33.314Z,1.50
2023-02-01T20:21:59.790Z,1.38
2023-02-01T20:24:26.617Z,2.25
2023-02-01T20:26:54.129Z,1.85
2023-02-01T20:29:20.937Z,2.15
2023-02-01T20:31:47.710Z,1.70
2023-02-01T20:34:14.484Z,1.83
2023-02-01T20:36:42.438Z,1.92
2023-02-01T20:39:10.664Z,1.50
2023-02-01T20:41:37.539Z,1.65
2023-02-01T20:44:03.993Z,1.93
2023-02-01T20:46:30.523Z,1.58
2023-02-01T20:48:56.993Z,1.73
2023-02-01T20:51:23.371Z,1.75
2023-02-01T20:53:52.785Z,1.60
2023-02-01T20:56:20.662Z,2.07
2023-02-01T20:58:47.302Z,2.20
2023-02-01T21:01:14.578Z,2.25
2023-02-01T21:03:41.244Z,1.40
2023-02-01T21:06:09.668Z,2.75
2023-02-01T21:08:36.124Z,1.40
2023-02-01T21:11:11.595Z,1.30
2023-02-01T21:13:43.996Z,1.70
2023-02-01T21:16:12.807Z,1.38
2023-02-01T21:18:39.710Z,1.80
2023-02-01T21:21:12.074Z,2.00
2023-02-01T21:23:47.562Z,1.63
2023-02-01T21:26:17.498Z,1.75
2023-02-01T21:28:44.747Z,1.27
2023-02-01T21:31:11.268Z,1.58
2023-02-01T21:33:39.125Z,1.57
2023-02-01T21:36:06.996Z,1.73
2023-02-01T21:38:34.022Z,1.42
2023-02-01T21:41:19.774Z,1.60
2023-02-01T21:43:46.157Z,1.40
2023-02-01T21:46:12.558Z,1.40
2023-02-01T21:49:04.098Z,1.92
2023-02-01T21:51:27.574Z,1.60
2023-02-01T21:53:53.956Z,1.77
2023-02-01T21:56:20.304Z,1.63
2023-02-01T21:58:46.669Z,2.00
2023-02-01T22:01:13.039Z,1.40
2023-02-01T22:03:39.481Z,1.70
2023-02-01T22:06:06.143Z,1.98
2023-02-01T22:08:38.376Z,1.70
2023-02-01T22:11:05.440Z,1.73
2023-02-01T22:13:32.002Z,1.35
2023-02-01T22:15:58.727Z,1.13
2023-02-01T22:18:25.300Z,1.42
2023-02-01T22:20:58.846Z,1.63
2023-02-01T22:23:27.910Z,1.63
2023-02-01T22:26:01.857Z,1.45
2023-02-01T22:28:31.881Z,1.50
2023-02-01T22:31:05.293Z,1.50
2023-02-01T22:33:33.445Z,1.70
2023-02-01T22:36:00.731Z,1.43
2023-02-01T22:38:28.834Z,1.40
2023-02-01T22:40:56.412Z,2.08
2023-02-01T22:43:22.959Z,1.48
2023-02-01T22:45:49.575Z,1.83
2023-02-01T22:48:16.127Z,2.10
2023-02-01T22:50:43.174Z,1.35
2023-02-01T22:53:09.765Z,1.98
2023-02-01T22:55:37.167Z,1.40
2023-02-01T22:58:06.015Z,1.65
2023-02-01T23:00:32.439Z,1.10
2023-02-01T23:02:58.838Z,1.92
2023-02-01T23:05:25.885Z,1.90
2023-02-01T23:07:52.372Z,1.70
2023-02-01T23:10:20.442Z,1.23
2023-02-01T23:12:47.315Z,1.57
2023-02-01T23:15:16.089Z,1.55
2023-02-01T23:17:43.929Z,1.85
2023-02-01T23:20:17.952Z,1.67
2023-02-01T23:22:46.539Z,1.30
2023-02-01T23:25:15.313Z,1.50
2023-02-01T23:27:42.577Z,1.80
2023-02-01T23:30:10.392Z,1.70
2023-02-01T23:32:37.030Z,1.35
2023-02-01T23:35:05.416Z,1.75
2023-02-01T23:37:31.867Z,1.60
2023-02-01T23:39:58.232Z,1.58
2023-02-01T23:42:24.625Z,1.20
2023-02-01T23:44:50.999Z,1.85
2023-02-01T23:47:17.502Z,1.30
2023-02-01T23:49:45.201Z,1.77
2023-02-01T23:52:11.546Z,1.90
2023-02-01T23:54:37.906Z,1.30
2023-02-01T23:57:04.439Z,1.55
2023-02-01T23:59:30.864Z,1.70
